メインページ
METAR-TAF:

METAR-TAF

空港 :

ピッツバーグ, ペンシルバニア州, アメリカ合衆国

ピッツバーグ国際空港

緯度: 40-30-14N, 経度: 080-15-59W, 海抜: 366m

現時点の気象観測

当レポートは49分前の00:51(UTC)に作成
無風
気温 18°C
湿度 28%
気圧 1017 hPa
視程: 16.1km
高度15000ftの雲は散在している
高度22000ftの曇り

METAR: KPIT 240051Z 00000KT 10SM SCT150 OVC220 18/M01 A3002 RMK AO2 SLP171 T01831006 $

時間: 21:40 (01:40 UTC)

予報

当レポートは2時間20分前の23:20(UTC)に作成
予報は24日の 00時(UTC)から 25日の 06時(UTC)まで有効
の風 4kt
視程: 10km
高度25000ftの雲は散在している
24日の 1500時(UTC)から
の風 10kt
視程: 10km
高度10000ftの千切れ雲あり
25日の 0000時(UTC)から
の風 10kt
視程: 10km
高度2500ftの千切れ雲あり

TAF: KPIT 232320Z 2400/2506 09004KT P6SM SCT250 FM241500 09010KT P6SM BKN100 FM250000 10010KT P6SM BKN025

4,000以上の空港の気象観測と天気予報(METAR報とTAF報)

利用可能な観測所は地図上に黄色い丸と赤い丸で示す。

丸の上にカーソルを重ねると観測所名を参照できる。

次にクリックすると気象観測と天気予報を参照できる。

マップの切り替え:黒色「×」印の緑ボタンをクリックして拡大、「-」印の緑ボタンをクリックして縮小、緑色の三角印をクリックして隣りの地図に切り替え


METAR-TAF: